createdAt,value
2019-04-29T00:04:30.798Z,3.57
2019-04-29T00:09:26.101Z,5.30
2019-04-29T00:14:21.327Z,5.63
2019-04-29T00:19:47.274Z,4.13
2019-04-29T00:24:42.325Z,4.60
2019-04-29T00:29:37.238Z,3.90
2019-04-29T00:34:32.453Z,4.37
2019-04-29T00:39:45.276Z,6.03
2019-04-29T00:44:40.566Z,4.10
2019-04-29T00:49:35.444Z,3.60
2019-04-29T00:54:36.896Z,6.33
2019-04-29T00:59:31.752Z,3.60
2019-04-29T01:04:26.749Z,3.57
2019-04-29T01:09:21.986Z,4.00
2019-04-29T01:14:16.815Z,4.87
2019-04-29T01:19:11.766Z,5.17
2019-04-29T01:24:06.753Z,3.87
2019-04-29T01:29:02.126Z,3.43
2019-04-29T01:34:02.014Z,4.57
2019-04-29T01:38:59.664Z,3.90
2019-04-29T01:44:19.239Z,6.20
2019-04-29T01:49:14.203Z,5.37
2019-04-29T01:54:09.037Z,7.87
2019-04-29T01:59:04.081Z,5.53
2019-04-29T02:03:58.970Z,4.50
2019-04-29T02:08:55.041Z,3.73
2019-04-29T02:13:49.903Z,6.97
2019-04-29T02:18:44.726Z,7.27
2019-04-29T02:24:04.714Z,4.33
2019-04-29T02:28:59.584Z,6.03
2019-04-29T02:33:54.429Z,5.47
2019-04-29T02:39:01.912Z,4.93
2019-04-29T02:43:58.661Z,4.50
2019-04-29T02:48:53.900Z,4.07
2019-04-29T02:53:49.220Z,8.23
2019-04-29T02:58:50.031Z,5.07
2019-04-29T03:04:00.246Z,5.83
2019-04-29T03:08:56.841Z,8.70
2019-04-29T03:13:51.734Z,7.10
2019-04-29T03:18:50.687Z,10.93
2019-04-29T03:23:45.544Z,14.00
2019-04-29T03:28:40.823Z,16.63
2019-04-29T03:33:35.716Z,17.37
2019-04-29T03:38:30.566Z,17.87
2019-04-29T03:43:25.513Z,23.57
2019-04-29T03:48:20.409Z,24.77
2019-04-29T03:53:15.313Z,16.60
2019-04-29T03:58:10.166Z,21.27
2019-04-29T04:03:28.608Z,14.70
2019-04-29T04:08:29.549Z,10.57
2019-04-29T04:13:25.778Z,10.07
2019-04-29T04:18:31.196Z,11.20
2019-04-29T04:23:28.758Z,8.27
2019-04-29T04:28:25.150Z,8.63
2019-04-29T04:33:20.416Z,5.27
2019-04-29T04:38:15.254Z,7.03
2019-04-29T04:43:10.076Z,8.93
2019-04-29T04:48:05.177Z,7.80
2019-04-29T04:53:00.187Z,8.13
2019-04-29T04:57:56.904Z,7.83
2019-04-29T05:02:51.799Z,8.97
2019-04-29T05:07:46.678Z,7.10
2019-04-29T05:12:41.565Z,8.33
2019-04-29T05:17:36.422Z,8.03
2019-04-29T05:22:31.262Z,13.03
2019-04-29T05:27:26.449Z,18.93
2019-04-29T05:32:21.351Z,7.57
2019-04-29T05:37:34.793Z,10.67
2019-04-29T05:42:29.711Z,8.07
2019-04-29T05:47:42.241Z,8.93
2019-04-29T05:52:44.096Z,10.77
2019-04-29T05:57:38.949Z,16.83
2019-04-29T06:02:38.548Z,11.87
2019-04-29T06:07:30.474Z,14.73
2019-04-29T06:12:25.417Z,14.47
2019-04-29T06:17:20.320Z,12.30
2019-04-29T06:22:15.234Z,14.70
2019-04-29T06:27:10.153Z,14.53
2019-04-29T06:32:05.187Z,14.93
2019-04-29T06:37:00.492Z,14.20
2019-04-29T06:41:55.489Z,11.77
2019-04-29T06:46:54.625Z,10.33
2019-04-29T06:51:47.049Z,12.60
2019-04-29T06:56:41.938Z,12.63
2019-04-29T07:01:37.461Z,15.57
2019-04-29T07:06:33.532Z,12.37
2019-04-29T07:11:31.878Z,10.30
2019-04-29T07:16:27.217Z,11.53
2019-04-29T07:21:21.885Z,14.13
2019-04-29T07:26:16.845Z,11.70
2019-04-29T07:31:11.766Z,11.30
2019-04-29T07:36:11.180Z,9.97
2019-04-29T07:41:03.352Z,8.97
2019-04-29T07:46:05.551Z,10.97
2019-04-29T07:51:04.093Z,9.40
2019-04-29T07:55:57.151Z,9.73
2019-04-29T08:00:52.100Z,7.50
2019-04-29T08:05:47.333Z,9.00
2019-04-29T08:10:55.580Z,8.00
2019-04-29T08:15:41.744Z,11.70
2019-04-29T08:20:39.607Z,15.13
2019-04-29T08:25:32.044Z,11.87
2019-04-29T08:30:26.936Z,11.07
2019-04-29T08:35:21.850Z,9.80
2019-04-29T08:40:18.087Z,10.00
2019-04-29T08:45:24.583Z,10.57
2019-04-29T08:50:19.576Z,9.90
2019-04-29T08:55:14.661Z,14.47
2019-04-29T09:00:11.962Z,12.93
2019-04-29T09:05:11.391Z,9.67
2019-04-29T09:10:03.847Z,11.77
2019-04-29T09:14:58.846Z,10.07
2019-04-29T09:19:53.769Z,11.63
2019-04-29T09:25:06.397Z,9.83
2019-04-29T09:30:11.713Z,9.30
2019-04-29T09:35:06.688Z,10.47
2019-04-29T09:40:02.045Z,11.23
2019-04-29T09:45:24.301Z,8.97
2019-04-29T09:50:18.717Z,5.17
2019-04-29T09:55:14.147Z,5.30
2019-04-29T10:00:16.029Z,6.60
2019-04-29T10:05:42.664Z,6.60
2019-04-29T10:10:37.632Z,9.10
2019-04-29T10:15:55.915Z,7.03
2019-04-29T10:21:00.632Z,7.33
2019-04-29T10:25:55.859Z,5.93
2019-04-29T10:30:50.716Z,9.63
2019-04-29T10:35:46.312Z,5.73
2019-04-29T10:41:06.967Z,8.03
2019-04-29T10:46:36.062Z,7.93
2019-04-29T10:51:31.389Z,8.13
2019-04-29T10:56:26.219Z,9.83
2019-04-29T11:02:33.734Z,9.23
2019-04-29T11:07:33.850Z,8.57
2019-04-29T11:12:28.902Z,17.13
2019-04-29T11:17:25.693Z,10.27
2019-04-29T11:22:22.538Z,8.10
2019-04-29T11:27:25.978Z,7.93
2019-04-29T11:32:31.069Z,10.50
2019-04-29T11:37:26.126Z,11.00
2019-04-29T11:42:26.980Z,8.10
2019-04-29T11:47:25.233Z,9.37
2019-04-29T11:52:18.670Z,11.03
2019-04-29T11:57:23.532Z,8.37
2019-04-29T12:02:45.516Z,9.77
2019-04-29T12:07:32.486Z,9.33
2019-04-29T12:12:26.487Z,9.30
2019-04-29T12:17:25.210Z,10.27
2019-04-29T12:22:30.568Z,8.00
2019-04-29T12:27:23.115Z,9.10
2019-04-29T12:32:44.228Z,11.03
2019-04-29T12:38:11.057Z,7.80
2019-04-29T12:43:25.231Z,6.70
2019-04-29T12:48:24.921Z,9.83
2019-04-29T12:53:16.823Z,7.30
2019-04-29T12:58:11.713Z,7.80
2019-04-29T13:03:30.830Z,6.97
2019-04-29T13:08:27.802Z,9.10
2019-04-29T13:13:22.923Z,6.53
2019-04-29T13:18:27.334Z,6.30
2019-04-29T13:23:33.643Z,9.17
2019-04-29T13:28:29.791Z,8.33
2019-04-29T13:33:16.792Z,6.87
2019-04-29T13:38:11.872Z,6.37
2019-04-29T13:43:06.752Z,7.67
2019-04-29T13:48:13.080Z,7.33
2019-04-29T13:53:11.715Z,6.93
2019-04-29T13:58:04.671Z,6.90
2019-04-29T14:03:11.648Z,7.83
2019-04-29T14:08:06.290Z,9.23
2019-04-29T14:13:10.856Z,7.10
2019-04-29T14:18:00.528Z,8.63
2019-04-29T14:22:55.381Z,8.30
2019-04-29T14:27:50.240Z,9.77
2019-04-29T14:32:49.530Z,8.87
2019-04-29T14:37:54.531Z,8.63
2019-04-29T14:42:57.783Z,10.27
2019-04-29T14:48:41.731Z,9.50
2019-04-29T14:53:28.711Z,12.23
2019-04-29T14:58:23.596Z,32.93
2019-04-29T15:03:19.098Z,20.80
2019-04-29T15:08:14.341Z,11.83
2019-04-29T15:13:20.706Z,10.90
2019-04-29T15:18:45.925Z,11.03
2019-04-29T15:23:28.749Z,12.40
2019-04-29T15:28:22.684Z,12.70
2019-04-29T15:33:17.690Z,13.30
2019-04-29T15:38:12.547Z,12.90
2019-04-29T15:43:07.434Z,18.30
2019-04-29T15:48:03.590Z,14.10
2019-04-29T15:53:02.848Z,14.90
2019-04-29T15:57:55.566Z,16.00
2019-04-29T16:02:50.769Z,16.13
2019-04-29T16:08:01.074Z,14.83
2019-04-29T16:12:58.717Z,16.43
2019-04-29T16:17:53.593Z,16.80
2019-04-29T16:22:48.481Z,15.43
2019-04-29T16:27:53.012Z,16.10
2019-04-29T16:32:43.176Z,13.50
2019-04-29T16:37:38.175Z,13.30
2019-04-29T16:42:55.215Z,10.23
2019-04-29T16:47:50.369Z,11.80
2019-04-29T16:52:45.498Z,9.43
2019-04-29T16:57:40.344Z,9.30
2019-04-29T17:02:35.209Z,9.37
2019-04-29T17:07:30.211Z,12.10
2019-04-29T17:12:29.414Z,9.50
2019-04-29T17:17:29.139Z,8.23
2019-04-29T17:22:27.156Z,7.87
2019-04-29T17:27:42.697Z,7.70
2019-04-29T17:32:52.954Z,7.10
2019-04-29T17:37:48.363Z,7.70
2019-04-29T17:42:44.956Z,7.67
2019-04-29T17:48:01.491Z,6.83
2019-04-29T17:52:56.531Z,7.33
2019-04-29T17:57:56.991Z,6.93
2019-04-29T18:03:15.289Z,7.00
2019-04-29T18:08:38.589Z,7.07
2019-04-29T18:13:35.139Z,9.33
2019-04-29T18:18:46.348Z,9.77
2019-04-29T18:23:47.147Z,9.93
2019-04-29T18:28:42.296Z,10.70
2019-04-29T18:33:37.241Z,12.10
2019-04-29T18:38:32.119Z,13.43
2019-04-29T18:43:27.127Z,14.80
2019-04-29T18:48:26.870Z,13.83
2019-04-29T18:53:21.815Z,14.70
2019-04-29T18:58:16.821Z,14.70
2019-04-29T19:03:14.882Z,14.80
2019-04-29T19:08:14.385Z,13.80
2019-04-29T19:13:12.947Z,15.50
2019-04-29T19:18:06.108Z,16.27
2019-04-29T19:23:10.121Z,17.87
2019-04-29T19:28:12.708Z,18.93
2019-04-29T19:33:00.528Z,18.77
2019-04-29T19:37:55.894Z,19.07
2019-04-29T19:42:50.717Z,20.10
2019-04-29T19:47:47.426Z,24.60
2019-04-29T19:52:42.521Z,22.20
2019-04-29T19:57:42.184Z,23.67
2019-04-29T20:02:35.900Z,21.90
2019-04-29T20:07:40.857Z,22.97
2019-04-29T20:12:29.253Z,20.57
2019-04-29T20:17:49.175Z,23.03
2019-04-29T20:22:46.288Z,22.63
2019-04-29T20:27:39.030Z,23.30
2019-04-29T20:32:36.003Z,24.93
2019-04-29T20:37:30.393Z,22.07
2019-04-29T20:42:25.950Z,23.30
2019-04-29T20:47:23.545Z,22.47
2019-04-29T20:52:36.818Z,25.13
2019-04-29T20:57:31.817Z,25.57
2019-04-29T21:02:31.269Z,22.70
2019-04-29T21:07:25.530Z,27.43
2019-04-29T21:12:38.433Z,26.07
2019-04-29T21:17:35.387Z,23.83
2019-04-29T21:22:30.175Z,26.63
2019-04-29T21:27:25.989Z,27.10
2019-04-29T21:32:20.890Z,27.27
2019-04-29T21:37:39.927Z,28.30
2019-04-29T21:42:47.357Z,26.10
2019-04-29T21:47:45.689Z,23.77
2019-04-29T21:52:38.902Z,25.70
2019-04-29T21:57:33.656Z,26.27
2019-04-29T22:02:28.457Z,26.13
2019-04-29T22:07:23.194Z,24.40
2019-04-29T22:12:20.310Z,29.87
2019-04-29T22:17:20.293Z,27.93
2019-04-29T22:22:15.030Z,28.97
2019-04-29T22:27:10.009Z,26.90
2019-04-29T22:32:07.849Z,28.77
2019-04-29T22:37:01.641Z,28.33
2019-04-29T22:42:18.555Z,29.10
2019-04-29T22:47:17.292Z,26.07
2019-04-29T22:52:09.711Z,28.10
2019-04-29T22:57:05.740Z,27.23
2019-04-29T23:02:00.480Z,27.63
2019-04-29T23:06:55.221Z,29.33
2019-04-29T23:11:49.949Z,26.30
2019-04-29T23:16:45.434Z,27.53
2019-04-29T23:21:59.071Z,30.20
2019-04-29T23:26:54.850Z,27.87
2019-04-29T23:31:49.627Z,25.70
2019-04-29T23:36:44.574Z,27.53
2019-04-29T23:41:39.481Z,28.40
2019-04-29T23:46:34.477Z,28.43
2019-04-29T23:51:36.303Z,27.97
2019-04-29T23:56:29.212Z,26.93
